createdAt,value
2022-11-21T00:00:05.655Z,98586.38
2022-11-21T00:01:22.138Z,98580.09
2022-11-21T00:02:24.451Z,98585.34
2022-11-21T00:03:26.996Z,98576.66
2022-11-21T00:04:29.511Z,98579.94
2022-11-21T00:05:32.910Z,98581.28
2022-11-21T00:06:35.084Z,98590.00
2022-11-21T00:07:37.381Z,98572.22
2022-11-21T00:08:39.677Z,98572.56
2022-11-21T00:09:41.879Z,98567.56
2022-11-21T00:10:44.878Z,98576.91
2022-11-21T00:11:47.254Z,98561.38
2022-11-21T00:12:55.044Z,98572.72
2022-11-21T00:13:58.089Z,98565.25
2022-11-21T00:15:00.297Z,98561.22
2022-11-21T00:16:07.485Z,98564.69
2022-11-21T00:17:10.160Z,98571.81
2022-11-21T00:18:12.862Z,98558.78
2022-11-21T00:19:15.029Z,98565.63
2022-11-21T00:20:18.701Z,98557.50
2022-11-21T00:21:21.177Z,98548.19
2022-11-21T00:22:23.458Z,98552.59
2022-11-21T00:23:28.237Z,98550.63
2022-11-21T00:24:30.404Z,98552.41
2022-11-21T00:25:32.614Z,98544.81
2022-11-21T00:26:34.885Z,98545.28
2022-11-21T00:27:37.211Z,98537.28
2022-11-21T00:28:39.585Z,98540.00
2022-11-21T00:29:41.790Z,98530.53
2022-11-21T00:30:44.092Z,98529.22
2022-11-21T00:31:46.280Z,98532.84
2022-11-21T00:32:48.510Z,98529.41
2022-11-21T00:33:50.821Z,98519.13
2022-11-21T00:34:53.001Z,98526.84
2022-11-21T00:35:55.218Z,98524.44
2022-11-21T00:36:57.407Z,98523.34
2022-11-21T00:37:59.665Z,98520.47
2022-11-21T00:39:01.852Z,98520.47
2022-11-21T00:40:04.904Z,98529.25
2022-11-21T00:41:07.113Z,98518.56
2022-11-21T00:42:09.348Z,98508.63
2022-11-21T00:43:11.702Z,98515.97
2022-11-21T00:44:13.943Z,98518.13
2022-11-21T00:45:21.150Z,98509.22
2022-11-21T00:46:26.207Z,98520.84
2022-11-21T00:47:28.430Z,98513.78
2022-11-21T00:48:32.179Z,98508.84
2022-11-21T00:49:34.501Z,98515.09
2022-11-21T00:50:36.765Z,98512.31
2022-11-21T00:51:38.974Z,98516.56
2022-11-21T00:52:41.178Z,98507.81
2022-11-21T00:53:43.478Z,98516.97
2022-11-21T00:54:45.741Z,98519.16
2022-11-21T00:55:47.987Z,98514.28
2022-11-21T00:56:50.539Z,98521.41
2022-11-21T00:57:52.705Z,98524.38
2022-11-21T00:58:54.895Z,98519.38
2022-11-21T00:59:57.086Z,98522.75
2022-11-21T01:01:04.878Z,98525.66
2022-11-21T01:02:07.246Z,98536.31
2022-11-21T01:03:09.545Z,98535.34
2022-11-21T01:04:12.000Z,98547.56
2022-11-21T01:05:14.451Z,98534.56
2022-11-21T01:06:16.662Z,98534.00
2022-11-21T01:07:18.961Z,98535.50
2022-11-21T01:08:21.482Z,98531.13
2022-11-21T01:09:24.148Z,98536.53
2022-11-21T01:10:26.392Z,98546.06
2022-11-21T01:11:29.467Z,98530.53
2022-11-21T01:12:31.634Z,98530.75
2022-11-21T01:13:34.518Z,98531.28
2022-11-21T01:14:36.753Z,98533.81
2022-11-21T01:15:38.948Z,98527.09
2022-11-21T01:16:41.271Z,98524.28
2022-11-21T01:17:43.494Z,98539.13
2022-11-21T01:18:46.726Z,98538.50
2022-11-21T01:19:48.886Z,98536.44
2022-11-21T01:20:51.286Z,98538.16
2022-11-21T01:21:53.489Z,98542.03
2022-11-21T01:22:55.735Z,98538.38
2022-11-21T01:24:02.739Z,98533.78
2022-11-21T01:25:05.470Z,98528.56
2022-11-21T01:26:11.443Z,98532.31
2022-11-21T01:27:13.653Z,98531.66
2022-11-21T01:28:15.926Z,98525.00
2022-11-21T01:29:18.540Z,98531.97
2022-11-21T01:30:20.820Z,98534.69
2022-11-21T01:31:25.260Z,98525.06
2022-11-21T01:32:27.476Z,98530.91
2022-11-21T01:33:29.717Z,98523.53
2022-11-21T01:34:31.890Z,98531.22
2022-11-21T01:35:34.065Z,98523.66
2022-11-21T01:36:36.260Z,98518.50
2022-11-21T01:37:38.459Z,98532.50
2022-11-21T01:38:42.686Z,98526.38
2022-11-21T01:39:44.907Z,98529.22
2022-11-21T01:40:47.071Z,98525.63
2022-11-21T01:41:49.306Z,98522.88
2022-11-21T01:43:02.443Z,98510.06
2022-11-21T01:44:26.298Z,98514.47
2022-11-21T01:45:47.656Z,98508.16
2022-11-21T01:46:51.634Z,98507.19
2022-11-21T01:47:53.829Z,98501.06
2022-11-21T01:49:10.273Z,98500.84
2022-11-21T01:50:13.197Z,98502.69
2022-11-21T01:51:24.910Z,98502.28
2022-11-21T01:52:30.938Z,98497.38
2022-11-21T01:53:34.933Z,98496.47
2022-11-21T01:54:45.823Z,98499.16
2022-11-21T01:55:49.177Z,98496.34
2022-11-21T01:57:01.513Z,98495.03
2022-11-21T01:58:03.789Z,98492.47
2022-11-21T01:59:08.438Z,98484.09
2022-11-21T02:01:39.739Z,98479.50
2022-11-21T02:02:51.453Z,98493.84
2022-11-21T02:03:56.793Z,98482.75
2022-11-21T02:05:00.311Z,98463.59
2022-11-21T02:06:02.687Z,98483.13
2022-11-21T02:07:06.961Z,98473.22
2022-11-21T02:08:19.748Z,98482.81
2022-11-21T02:09:23.255Z,98468.16
2022-11-21T02:10:25.868Z,98479.44
2022-11-21T02:11:36.357Z,98475.00
2022-11-21T02:12:56.049Z,98473.91
2022-11-21T02:13:59.571Z,98479.53
2022-11-21T02:15:02.168Z,98467.94
2022-11-21T02:16:04.723Z,98482.63
2022-11-21T02:17:09.211Z,98477.13
2022-11-21T02:18:11.513Z,98466.41
2022-11-21T02:19:24.749Z,98470.81
2022-11-21T02:20:29.018Z,98469.03
2022-11-21T02:21:56.576Z,98478.44
2022-11-21T02:23:15.876Z,98464.00
2022-11-21T02:24:34.243Z,98456.25
2022-11-21T02:25:39.342Z,98459.03
2022-11-21T02:26:42.332Z,98463.34
2022-11-21T02:27:46.184Z,98464.84
2022-11-21T02:28:48.464Z,98467.44
2022-11-21T02:29:50.811Z,98463.91
2022-11-21T02:30:53.022Z,98467.16
2022-11-21T02:31:55.275Z,98464.56
2022-11-21T02:32:58.063Z,98469.47
2022-11-21T02:34:00.273Z,98468.81
2022-11-21T02:35:02.707Z,98470.56
2022-11-21T02:36:25.551Z,98469.63
2022-11-21T02:37:28.739Z,98466.66
2022-11-21T02:38:35.077Z,98471.47
2022-11-21T02:39:37.795Z,98471.56
2022-11-21T02:40:43.910Z,98471.38
2022-11-21T02:41:57.670Z,98475.38
2022-11-21T02:43:16.439Z,98464.88
2022-11-21T02:44:24.388Z,98472.88
2022-11-21T02:45:35.614Z,98469.97
2022-11-21T02:46:47.429Z,98462.28
2022-11-21T02:47:53.634Z,98470.25
2022-11-21T02:48:57.303Z,98472.84
2022-11-21T02:50:14.660Z,98466.66
2022-11-21T02:51:16.879Z,98473.31
2022-11-21T02:52:19.164Z,98466.75
2022-11-21T02:53:21.345Z,98478.16
2022-11-21T02:54:23.668Z,98467.78
2022-11-21T02:55:26.361Z,98467.03
2022-11-21T02:56:28.599Z,98469.81
2022-11-21T02:57:31.001Z,98471.91
2022-11-21T02:58:33.265Z,98460.06
2022-11-21T02:59:35.487Z,98469.69
2022-11-21T03:00:39.770Z,98467.53
2022-11-21T03:01:42.224Z,98464.16
2022-11-21T03:02:44.451Z,98456.00
2022-11-21T03:03:46.638Z,98459.66
2022-11-21T03:04:48.961Z,98466.50
2022-11-21T03:05:51.330Z,98466.69
2022-11-21T03:06:53.524Z,98464.22
2022-11-21T03:07:55.754Z,98454.94
2022-11-21T03:08:58.175Z,98461.78
2022-11-21T03:10:00.453Z,98471.66
2022-11-21T03:11:02.732Z,98461.84
2022-11-21T03:12:09.471Z,98451.19
2022-11-21T03:13:11.690Z,98456.28
2022-11-21T03:14:13.978Z,98455.53
2022-11-21T03:15:16.694Z,98446.19
2022-11-21T03:16:18.966Z,98457.84
2022-11-21T03:17:21.263Z,98448.13
2022-11-21T03:18:23.534Z,98455.03
2022-11-21T03:19:25.796Z,98459.72
2022-11-21T03:20:28.717Z,98447.28
2022-11-21T03:21:31.054Z,98446.75
2022-11-21T03:22:33.656Z,98444.31
2022-11-21T03:23:35.969Z,98450.53
2022-11-21T03:24:38.209Z,98454.63
2022-11-21T03:25:40.472Z,98453.25
2022-11-21T03:26:42.812Z,98449.53
2022-11-21T03:27:45.108Z,98453.31
2022-11-21T03:28:47.264Z,98446.19
2022-11-21T03:29:49.636Z,98454.22
2022-11-21T03:30:51.849Z,98461.47
2022-11-21T03:31:54.060Z,98454.81
2022-11-21T03:32:57.161Z,98447.78
2022-11-21T03:33:59.433Z,98452.66
2022-11-21T03:35:01.665Z,98446.41
2022-11-21T03:36:04.357Z,98443.94
2022-11-21T03:37:06.777Z,98442.50
2022-11-21T03:38:09.068Z,98438.78
2022-11-21T03:39:11.284Z,98443.41
2022-11-21T03:40:13.926Z,98437.00
2022-11-21T03:41:31.286Z,98439.66
2022-11-21T03:42:33.506Z,98436.00
2022-11-21T03:43:35.818Z,98435.09
2022-11-21T03:44:38.085Z,98437.81
2022-11-21T03:45:40.276Z,98428.06
2022-11-21T03:46:44.812Z,98436.56
2022-11-21T03:47:47.304Z,98432.50
2022-11-21T03:48:50.064Z,98436.84
2022-11-21T03:49:52.265Z,98436.94
2022-11-21T03:50:54.492Z,98423.56
2022-11-21T03:51:56.785Z,98437.47
2022-11-21T03:52:58.969Z,98438.13
2022-11-21T03:54:01.351Z,98428.84
2022-11-21T03:55:04.567Z,98440.25
2022-11-21T03:56:06.803Z,98432.81
2022-11-21T03:57:09.001Z,98432.09
2022-11-21T03:58:11.219Z,98432.16
2022-11-21T03:59:13.438Z,98432.78
2022-11-21T04:00:16.566Z,98417.25
2022-11-21T04:01:19.356Z,98431.13
2022-11-21T04:02:21.757Z,98439.75
2022-11-21T04:03:24.014Z,98435.16
2022-11-21T04:04:26.692Z,98442.06
2022-11-21T04:05:29.405Z,98432.59
2022-11-21T04:06:31.813Z,98431.66
2022-11-21T04:07:34.068Z,98431.56
2022-11-21T04:08:36.372Z,98420.41
2022-11-21T04:09:38.577Z,98426.28
2022-11-21T04:10:48.117Z,98426.91
2022-11-21T04:11:50.595Z,98434.16
2022-11-21T04:12:52.807Z,98437.06
2022-11-21T04:13:55.165Z,98427.19
2022-11-21T04:14:57.489Z,98433.41
2022-11-21T04:15:59.874Z,98432.50
2022-11-21T04:17:02.359Z,98429.81
2022-11-21T04:18:04.542Z,98421.31
2022-11-21T04:19:06.754Z,98420.59
2022-11-21T04:20:09.746Z,98427.94
2022-11-21T04:21:12.057Z,98429.03
2022-11-21T04:22:14.311Z,98437.59
2022-11-21T04:23:16.645Z,98429.69
2022-11-21T04:24:18.878Z,98432.34
2022-11-21T04:25:21.091Z,98430.97
2022-11-21T04:26:23.397Z,98431.44
2022-11-21T04:27:25.805Z,98428.22
2022-11-21T04:28:28.090Z,98425.19
2022-11-21T04:29:30.307Z,98425.91
2022-11-21T04:30:33.916Z,98437.22
2022-11-21T04:31:36.554Z,98442.53
2022-11-21T04:32:38.802Z,98428.69
2022-11-21T04:33:41.010Z,98446.00
2022-11-21T04:34:43.206Z,98446.63
2022-11-21T04:35:46.818Z,98439.31
2022-11-21T04:36:49.140Z,98446.47
2022-11-21T04:37:51.730Z,98444.59
2022-11-21T04:38:54.256Z,98438.19
2022-11-21T04:39:56.466Z,98443.41
2022-11-21T04:40:58.681Z,98445.09
2022-11-21T04:42:00.890Z,98447.75
2022-11-21T04:43:03.828Z,98437.31
2022-11-21T04:44:06.075Z,98436.56
2022-11-21T04:45:09.077Z,98429.09
2022-11-21T04:46:11.333Z,98436.34
2022-11-21T04:47:13.617Z,98439.09
2022-11-21T04:48:15.853Z,98435.97
2022-11-21T04:49:18.114Z,98427.81
2022-11-21T04:50:20.635Z,98434.16
2022-11-21T04:51:23.020Z,98437.34
2022-11-21T04:52:25.195Z,98444.13
2022-11-21T04:53:27.438Z,98442.31
2022-11-21T04:54:30.170Z,98445.16
2022-11-21T04:55:32.949Z,98449.97
2022-11-21T04:56:35.184Z,98456.03
2022-11-21T04:57:37.582Z,98442.97
2022-11-21T04:58:39.875Z,98451.47
2022-11-21T04:59:42.056Z,98442.50
2022-11-21T05:00:44.293Z,98448.25
2022-11-21T05:01:46.546Z,98443.38
2022-11-21T05:02:48.888Z,98443.56
2022-11-21T05:03:52.574Z,98441.06
2022-11-21T05:04:54.844Z,98441.56
2022-11-21T05:05:57.026Z,98430.44
2022-11-21T05:06:59.329Z,98435.66
2022-11-21T05:08:01.550Z,98433.19
2022-11-21T05:09:03.794Z,98437.50
2022-11-21T05:10:07.284Z,98439.09
2022-11-21T05:11:27.838Z,98439.94
2022-11-21T05:12:48.639Z,98441.13
2022-11-21T05:13:53.604Z,98442.91
2022-11-21T05:14:56.552Z,98441.47
2022-11-21T05:15:58.914Z,98444.38
2022-11-21T05:17:01.097Z,98438.03
2022-11-21T05:18:03.544Z,98440.75
2022-11-21T05:19:05.799Z,98443.34
2022-11-21T05:20:08.839Z,98438.25
2022-11-21T05:21:11.110Z,98436.31
2022-11-21T05:22:13.880Z,98427.88
2022-11-21T05:23:16.246Z,98425.84
2022-11-21T05:24:18.485Z,98426.25
2022-11-21T05:25:21.058Z,98418.31
2022-11-21T05:26:23.313Z,98428.84
2022-11-21T05:27:25.588Z,98421.88
2022-11-21T05:28:27.812Z,98433.63
2022-11-21T05:29:30.233Z,98424.78
2022-11-21T05:30:32.551Z,98428.41
2022-11-21T05:31:34.787Z,98427.06
2022-11-21T05:32:36.991Z,98425.22
2022-11-21T05:33:39.204Z,98425.47
2022-11-21T05:34:41.459Z,98425.25
2022-11-21T05:35:44.000Z,98420.16
2022-11-21T05:36:46.394Z,98423.78
2022-11-21T05:37:48.696Z,98436.50
2022-11-21T05:38:51.047Z,98422.63
2022-11-21T05:39:53.455Z,98436.75
2022-11-21T05:40:55.679Z,98438.25
2022-11-21T05:42:02.666Z,98435.28
2022-11-21T05:43:23.908Z,98445.47
2022-11-21T05:44:26.495Z,98450.94
2022-11-21T05:45:29.110Z,98439.13
2022-11-21T05:46:31.331Z,98434.94
2022-11-21T05:47:33.543Z,98445.53
2022-11-21T05:48:36.877Z,98437.66
2022-11-21T05:49:39.114Z,98429.72
2022-11-21T05:50:41.313Z,98434.94
2022-11-21T05:51:43.593Z,98424.69
2022-11-21T05:52:45.817Z,98429.06
2022-11-21T05:53:48.528Z,98432.00
2022-11-21T05:54:50.759Z,98429.16
2022-11-21T05:55:52.966Z,98430.81
2022-11-21T05:56:58.246Z,98423.75
2022-11-21T05:58:00.952Z,98433.63
2022-11-21T05:59:03.171Z,98429.94
2022-11-21T06:00:06.001Z,98436.19
2022-11-21T06:01:09.954Z,98430.13
2022-11-21T06:02:30.576Z,98442.25
2022-11-21T06:03:36.665Z,98439.91
2022-11-21T06:04:38.904Z,98427.84
2022-11-21T06:05:41.362Z,98432.22
2022-11-21T06:06:43.566Z,98432.63
2022-11-21T06:07:45.913Z,98428.91
2022-11-21T06:08:48.204Z,98420.25
2022-11-21T06:09:50.510Z,98431.81
2022-11-21T06:10:52.751Z,98449.44
2022-11-21T06:11:54.922Z,98437.94
2022-11-21T06:13:00.929Z,98445.41
2022-11-21T06:14:03.234Z,98451.75
2022-11-21T06:15:05.726Z,98444.94
2022-11-21T06:16:13.267Z,98443.44
2022-11-21T06:17:15.561Z,98443.63
2022-11-21T06:18:17.884Z,98438.00
2022-11-21T06:19:20.159Z,98448.72
2022-11-21T06:20:22.622Z,98444.78
2022-11-21T06:21:28.122Z,98441.81
2022-11-21T06:22:30.499Z,98444.09
2022-11-21T06:23:32.799Z,98446.66
2022-11-21T06:24:35.009Z,98444.44
2022-11-21T06:25:37.248Z,98440.34
2022-11-21T06:26:39.525Z,98443.72
2022-11-21T06:27:41.749Z,98448.63
2022-11-21T06:28:45.402Z,98431.41
2022-11-21T06:29:47.615Z,98435.63
2022-11-21T06:30:51.811Z,98434.66
2022-11-21T06:31:55.963Z,98437.59
2022-11-21T06:32:58.807Z,98426.78
2022-11-21T06:34:01.028Z,98434.50
2022-11-21T06:35:03.758Z,98433.56
2022-11-21T06:36:11.598Z,98431.34
2022-11-21T06:37:13.786Z,98427.16
2022-11-21T06:38:18.657Z,98427.06
2022-11-21T06:39:20.887Z,98431.56
2022-11-21T06:40:23.074Z,98432.13
2022-11-21T06:41:26.793Z,98435.03
2022-11-21T06:42:29.040Z,98441.13
2022-11-21T06:43:31.294Z,98440.81
2022-11-21T06:44:33.535Z,98437.09
2022-11-21T06:45:35.723Z,98444.66
2022-11-21T06:46:37.943Z,98448.03
2022-11-21T06:47:40.229Z,98446.50
2022-11-21T06:48:43.927Z,98434.94
2022-11-21T06:49:46.131Z,98440.38
2022-11-21T06:50:48.329Z,98449.22
2022-11-21T06:51:50.582Z,98451.72
2022-11-21T06:52:52.833Z,98445.53
2022-11-21T06:53:57.373Z,98441.59
2022-11-21T06:55:00.112Z,98449.50
2022-11-21T06:56:02.822Z,98446.38
2022-11-21T06:57:05.110Z,98453.63
2022-11-21T06:58:07.365Z,98445.91
2022-11-21T06:59:09.742Z,98454.34
2022-11-21T07:00:12.619Z,98453.91
2022-11-21T07:01:14.908Z,98456.22
2022-11-21T07:02:17.160Z,98456.31
2022-11-21T07:03:19.433Z,98452.63
2022-11-21T07:04:21.717Z,98454.06
2022-11-21T07:05:24.124Z,98459.00
2022-11-21T07:06:27.207Z,98456.69
2022-11-21T07:07:29.598Z,98457.72
2022-11-21T07:08:33.780Z,98455.91
2022-11-21T07:09:36.676Z,98467.38
2022-11-21T07:10:38.977Z,98465.13
2022-11-21T07:11:41.231Z,98455.91
2022-11-21T07:13:02.445Z,98451.19
2022-11-21T07:14:08.960Z,98455.75
2022-11-21T07:15:12.027Z,98453.25
2022-11-21T07:16:14.312Z,98457.06
2022-11-21T07:17:16.660Z,98447.09
2022-11-21T07:18:22.951Z,98452.44
2022-11-21T07:19:25.439Z,98453.50
2022-11-21T07:20:28.139Z,98452.59
2022-11-21T07:21:30.317Z,98447.97
2022-11-21T07:22:32.488Z,98442.78
2022-11-21T07:23:35.376Z,98436.44
2022-11-21T07:24:37.681Z,98444.28
2022-11-21T07:25:40.082Z,98444.94
2022-11-21T07:26:42.331Z,98444.28
2022-11-21T07:27:44.694Z,98443.34
2022-11-21T07:28:47.031Z,98449.09
2022-11-21T07:29:49.286Z,98443.56
2022-11-21T07:30:51.542Z,98429.06
2022-11-21T07:31:54.671Z,98438.31
2022-11-21T07:32:58.390Z,98447.81
2022-11-21T07:34:00.672Z,98442.31
2022-11-21T07:35:02.922Z,98453.47
2022-11-21T07:36:05.414Z,98444.50
2022-11-21T07:37:07.655Z,98449.47
2022-11-21T07:38:09.971Z,98446.25
2022-11-21T07:39:12.267Z,98448.09
2022-11-21T07:40:14.657Z,98443.31
2022-11-21T07:41:16.917Z,98445.63
2022-11-21T07:42:19.161Z,98439.72
2022-11-21T07:43:21.459Z,98440.06
2022-11-21T07:44:23.692Z,98438.38
2022-11-21T07:45:25.955Z,98455.00
2022-11-21T07:46:28.215Z,98449.31
2022-11-21T07:47:30.499Z,98451.00
2022-11-21T07:48:32.820Z,98450.22
2022-11-21T07:49:35.071Z,98454.19
2022-11-21T07:50:37.343Z,98454.69
2022-11-21T07:51:39.697Z,98461.19
2022-11-21T07:52:41.994Z,98456.88
2022-11-21T07:53:44.263Z,98461.31
2022-11-21T07:54:46.510Z,98459.63
2022-11-21T07:55:48.759Z,98456.22
2022-11-21T07:56:51.113Z,98465.47
2022-11-21T07:58:03.391Z,98466.88
2022-11-21T07:59:05.681Z,98472.09
2022-11-21T08:00:08.737Z,98468.69
2022-11-21T08:01:11.013Z,98469.75
2022-11-21T08:02:31.358Z,98475.41
2022-11-21T08:03:34.404Z,98470.06
2022-11-21T08:04:36.668Z,98474.06
2022-11-21T08:05:42.826Z,98466.06
2022-11-21T08:06:45.055Z,98466.19
2022-11-21T08:07:47.578Z,98467.75
2022-11-21T08:08:54.086Z,98466.53
2022-11-21T08:09:56.368Z,98461.25
2022-11-21T08:10:58.674Z,98472.69
2022-11-21T08:12:00.915Z,98459.03
2022-11-21T08:13:03.112Z,98465.41
2022-11-21T08:14:05.463Z,98458.69
2022-11-21T08:15:08.730Z,98459.59
2022-11-21T08:16:10.996Z,98467.75
2022-11-21T08:17:14.218Z,98468.50
2022-11-21T08:18:20.833Z,98452.84
2022-11-21T08:19:23.052Z,98460.13
2022-11-21T08:20:25.292Z,98460.13
2022-11-21T08:21:27.913Z,98468.25
2022-11-21T08:22:30.188Z,98463.63
2022-11-21T08:23:32.858Z,98464.63
2022-11-21T08:24:35.114Z,98454.28
2022-11-21T08:25:39.138Z,98454.75
2022-11-21T08:26:41.520Z,98458.16
2022-11-21T08:27:43.837Z,98453.31
2022-11-21T08:28:46.092Z,98463.53
2022-11-21T08:29:48.502Z,98455.78
2022-11-21T08:30:50.816Z,98460.63
2022-11-21T08:31:53.068Z,98462.19
2022-11-21T08:32:57.082Z,98459.53
2022-11-21T08:34:01.144Z,98458.66
2022-11-21T08:35:03.859Z,98457.59
2022-11-21T08:36:07.197Z,98458.78
2022-11-21T08:37:09.438Z,98453.91
2022-11-21T08:38:12.415Z,98445.84
2022-11-21T08:39:14.702Z,98452.81
2022-11-21T08:40:16.993Z,98451.63
2022-11-21T08:41:37.959Z,98449.34
2022-11-21T08:42:40.192Z,98453.63
2022-11-21T08:43:42.512Z,98448.09
2022-11-21T08:44:44.761Z,98449.03
2022-11-21T08:45:46.981Z,98450.78
2022-11-21T08:46:49.228Z,98448.66
2022-11-21T08:47:51.952Z,98438.19
2022-11-21T08:48:55.137Z,98448.31
2022-11-21T08:49:57.321Z,98452.16
2022-11-21T08:51:00.140Z,98447.25
2022-11-21T08:52:02.315Z,98448.09
2022-11-21T08:53:04.537Z,98442.38
2022-11-21T08:54:07.560Z,98441.38
2022-11-21T08:55:09.922Z,98444.56
2022-11-21T08:56:12.247Z,98433.56
2022-11-21T08:57:14.790Z,98431.38
2022-11-21T08:58:17.242Z,98427.22
2022-11-21T08:59:19.499Z,98424.19
2022-11-21T09:00:21.886Z,98417.50
2022-11-21T09:01:24.219Z,98424.25
2022-11-21T09:02:26.551Z,98419.25
2022-11-21T09:03:31.299Z,98430.16
2022-11-21T09:04:33.957Z,98423.25
2022-11-21T09:05:36.378Z,98426.81
2022-11-21T09:06:38.808Z,98421.44
2022-11-21T09:07:41.481Z,98426.13
2022-11-21T09:08:43.846Z,98422.88
2022-11-21T09:09:46.058Z,98426.25
2022-11-21T09:10:48.393Z,98433.22
2022-11-21T09:11:50.601Z,98430.03
2022-11-21T09:12:53.169Z,98429.75
2022-11-21T09:14:13.754Z,98425.38
2022-11-21T09:15:34.949Z,98425.31
2022-11-21T09:17:00.780Z,98426.47
2022-11-21T09:18:04.792Z,98411.75
2022-11-21T09:19:07.094Z,98407.19
2022-11-21T09:20:09.877Z,98418.09
2022-11-21T09:21:16.284Z,98420.34
2022-11-21T09:22:18.517Z,98415.91
2022-11-21T09:23:20.748Z,98416.00
2022-11-21T09:24:22.980Z,98423.69
2022-11-21T09:25:25.270Z,98416.38
2022-11-21T09:26:27.447Z,98418.59
2022-11-21T09:27:30.769Z,98416.00
2022-11-21T09:28:33.400Z,98417.75
2022-11-21T09:29:35.650Z,98411.22
2022-11-21T09:30:38.660Z,98425.31
2022-11-21T09:31:41.853Z,98422.97
2022-11-21T09:32:44.067Z,98426.66
2022-11-21T09:33:48.657Z,98420.88
2022-11-21T09:34:53.411Z,98429.44
2022-11-21T09:35:58.419Z,98425.94
2022-11-21T09:37:00.684Z,98433.88
2022-11-21T09:38:03.755Z,98423.56
2022-11-21T09:39:06.095Z,98427.47
2022-11-21T09:40:16.562Z,98418.16
2022-11-21T09:41:57.656Z,98423.88
2022-11-21T09:43:38.200Z,98419.09
2022-11-21T09:44:56.728Z,98411.91
2022-11-21T09:46:10.931Z,98416.34
2022-11-21T09:47:30.434Z,98406.97
2022-11-21T09:48:58.265Z,98408.19
2022-11-21T09:50:04.080Z,98393.50
2022-11-21T09:51:13.883Z,98403.56
2022-11-21T09:52:20.860Z,98397.19
2022-11-21T09:53:31.312Z,98395.66
2022-11-21T09:54:39.463Z,98395.59
2022-11-21T09:55:41.705Z,98393.78
2022-11-21T09:56:44.413Z,98399.44
2022-11-21T09:57:49.450Z,98390.16
2022-11-21T09:59:19.397Z,98385.22
2022-11-21T10:00:24.818Z,98393.97
2022-11-21T10:01:29.277Z,98390.19
2022-11-21T10:02:31.674Z,98391.34
2022-11-21T10:03:42.872Z,98387.41
2022-11-21T10:04:48.892Z,98386.91
2022-11-21T10:06:06.230Z,98371.25
2022-11-21T10:07:16.989Z,98377.28
2022-11-21T10:08:41.672Z,98371.44
2022-11-21T10:09:55.882Z,98365.91
2022-11-21T10:11:19.399Z,98362.47
2022-11-21T10:12:44.059Z,98362.28
2022-11-21T10:13:57.540Z,98355.94
2022-11-21T10:15:17.704Z,98349.78
2022-11-21T10:16:46.355Z,98361.97
2022-11-21T10:18:22.364Z,98348.81
2022-11-21T10:20:08.432Z,98354.91
2022-11-21T10:21:32.039Z,98357.91
2022-11-21T10:22:45.006Z,98350.97
2022-11-21T10:24:20.953Z,98359.50
2022-11-21T10:25:27.447Z,98369.19
2022-11-21T10:26:41.995Z,98351.50
2022-11-21T10:27:52.227Z,98363.53
2022-11-21T10:29:23.861Z,98361.09
2022-11-21T10:30:26.245Z,98359.56
2022-11-21T10:31:34.760Z,98348.34
2022-11-21T10:32:43.225Z,98349.91
2022-11-21T10:33:45.853Z,98346.56
2022-11-21T10:34:51.209Z,98351.84
2022-11-21T10:36:01.166Z,98342.53
2022-11-21T10:37:29.348Z,98336.84
2022-11-21T10:38:38.920Z,98332.53
2022-11-21T10:39:45.326Z,98322.84
2022-11-21T10:40:53.678Z,98326.78
2022-11-21T10:42:24.218Z,98319.97
2022-11-21T10:43:58.364Z,98321.75
2022-11-21T10:45:16.724Z,98311.88
2022-11-21T10:46:19.040Z,98321.34
2022-11-21T10:47:27.674Z,98310.50
2022-11-21T10:48:30.224Z,98313.47
2022-11-21T10:49:34.384Z,98308.16
2022-11-21T10:50:50.159Z,98309.50
2022-11-21T10:52:10.890Z,98305.53
2022-11-21T10:53:40.816Z,98310.97
2022-11-21T10:55:04.657Z,98302.31
2022-11-21T10:56:12.557Z,98300.38
2022-11-21T10:57:18.499Z,98300.88
2022-11-21T10:58:35.797Z,98290.94
2022-11-21T10:59:38.199Z,98289.78
2022-11-21T11:00:57.084Z,98288.69
2022-11-21T11:02:19.156Z,98282.53
2022-11-21T11:03:21.994Z,98277.28
2022-11-21T11:04:28.218Z,98279.59
2022-11-21T11:05:37.291Z,98265.69
2022-11-21T11:06:41.919Z,98269.41
2022-11-21T11:08:02.281Z,98273.34
2022-11-21T11:09:05.285Z,98272.06
2022-11-21T11:10:26.790Z,98263.13
2022-11-21T11:11:30.087Z,98260.50
2022-11-21T11:12:51.160Z,98261.88
2022-11-21T11:13:59.891Z,98259.88
2022-11-21T11:15:02.250Z,98258.41
2022-11-21T11:16:10.343Z,98251.16
2022-11-21T11:17:14.949Z,98250.28
2022-11-21T11:18:22.312Z,98252.97
2022-11-21T11:19:38.567Z,98249.16
2022-11-21T11:20:45.067Z,98245.66
2022-11-21T11:21:47.683Z,98245.38
2022-11-21T11:22:50.009Z,98240.41
2022-11-21T11:23:54.604Z,98244.38
2022-11-21T11:25:00.462Z,98228.50
2022-11-21T11:26:03.249Z,98235.56
2022-11-21T11:27:05.502Z,98231.00
2022-11-21T11:28:09.104Z,98231.25
2022-11-21T11:29:15.595Z,98228.22
2022-11-21T11:30:19.700Z,98230.97
2022-11-21T11:31:22.357Z,98228.06
2022-11-21T11:32:24.986Z,98227.41
2022-11-21T11:33:35.972Z,98216.22
2022-11-21T11:34:41.185Z,98219.88
2022-11-21T11:35:43.785Z,98210.66
2022-11-21T11:36:54.155Z,98210.31
2022-11-21T11:38:02.779Z,98204.75
2022-11-21T11:39:19.604Z,98205.81
2022-11-21T11:40:30.074Z,98206.88
2022-11-21T11:42:19.942Z,98207.72
2022-11-21T11:43:49.730Z,98199.56
2022-11-21T11:45:33.690Z,98189.25
2022-11-21T11:47:10.532Z,98190.41
2022-11-21T11:48:12.907Z,98200.81
2022-11-21T11:49:59.547Z,98187.25
2022-11-21T11:51:06.579Z,98194.03
2022-11-21T11:52:11.570Z,98195.91
2022-11-21T11:53:39.381Z,98186.69
2022-11-21T11:54:50.236Z,98184.34
2022-11-21T11:56:04.965Z,98185.13
2022-11-21T11:57:09.650Z,98175.44
2022-11-21T11:58:47.490Z,98190.66
2022-11-21T12:00:03.025Z,98188.78
2022-11-21T12:01:33.905Z,98177.25
2022-11-21T12:02:55.393Z,98192.06
2022-11-21T12:04:11.461Z,98183.72
2022-11-21T12:05:23.286Z,98193.75
2022-11-21T12:06:46.872Z,98180.06
2022-11-21T12:09:33.181Z,98172.50
2022-11-21T12:11:04.512Z,98172.75
2022-11-21T12:12:15.709Z,98166.72
2022-11-21T12:13:20.327Z,98166.53
2022-11-21T12:14:50.300Z,98166.63
2022-11-21T12:16:04.010Z,98163.75
2022-11-21T12:17:10.697Z,98153.66
2022-11-21T12:18:20.339Z,98157.47
2022-11-21T12:19:22.993Z,98156.75
2022-11-21T12:20:37.137Z,98148.25
2022-11-21T12:21:39.471Z,98145.75
2022-11-21T12:22:42.423Z,98141.44
2022-11-21T12:23:54.728Z,98139.94
2022-11-21T12:24:56.993Z,98134.41
2022-11-21T12:26:15.408Z,98133.28
2022-11-21T12:27:35.387Z,98131.66
2022-11-21T12:29:15.134Z,98132.50
2022-11-21T12:30:47.458Z,98126.50
2022-11-21T12:32:11.790Z,98126.50
2022-11-21T12:33:23.606Z,98129.50
2022-11-21T12:34:57.083Z,98125.00
2022-11-21T12:36:18.403Z,98116.78
2022-11-21T12:37:39.361Z,98125.41
2022-11-21T12:39:16.150Z,98112.06
2022-11-21T12:40:42.226Z,98102.34
2022-11-21T12:42:16.397Z,98113.25
2022-11-21T12:43:25.154Z,98102.28
2022-11-21T12:45:02.589Z,98103.03
2022-11-21T12:46:16.337Z,98102.00
2022-11-21T12:48:18.527Z,98100.75
2022-11-21T12:50:17.660Z,98095.53
2022-11-21T12:51:53.747Z,98085.13
2022-11-21T12:53:31.664Z,98090.94
2022-11-21T12:54:52.022Z,98089.88
2022-11-21T12:56:07.848Z,98082.69
2022-11-21T12:57:15.525Z,98075.28
2022-11-21T12:58:38.296Z,98071.94
2022-11-21T12:59:57.133Z,98068.88
2022-11-21T13:01:28.169Z,98070.56
2022-11-21T13:02:38.686Z,98062.72
2022-11-21T13:03:58.993Z,98058.16